sensor_id;sensor_type;location;lat;lon;timestamp;pressure;altitude;pressure_sealevel;temperature;humidity
78223;BME280;67497;53.058;21.618;2024-01-06T00:01:54;100028.81;;;-5.89;82.81
78223;BME280;67497;53.058;21.618;2024-01-06T00:03:55;100026.41;;;-5.95;81.47
78223;BME280;67497;53.058;21.618;2024-01-06T00:05:55;100020.34;;;-6.00;81.59
78223;BME280;67497;53.058;21.618;2024-01-06T00:07:56;100032.56;;;-5.93;82.56
78223;BME280;67497;53.058;21.618;2024-01-06T00:09:56;100039.59;;;-5.92;83.49
78223;BME280;67497;53.058;21.618;2024-01-06T00:11:57;100028.81;;;-5.89;83.11
78223;BME280;67497;53.058;21.618;2024-01-06T00:13:57;100020.03;;;-5.91;82.97
78223;BME280;67497;53.058;21.618;2024-01-06T00:15:58;100021.78;;;-5.90;81.83
78223;BME280;67497;53.058;21.618;2024-01-06T00:17:58;100018.03;;;-5.86;83.20
78223;BME280;67497;53.058;21.618;2024-01-06T00:19:59;100024.88;;;-5.79;82.63
78223;BME280;67497;53.058;21.618;2024-01-06T00:22:00;100015.03;;;-5.78;82.54
78223;BME280;67497;53.058;21.618;2024-01-06T00:24:00;100023.88;;;-5.76;82.23
78223;BME280;67497;53.058;21.618;2024-01-06T00:26:01;100024.50;;;-5.70;81.83
78223;BME280;67497;53.058;21.618;2024-01-06T00:28:02;99997.88;;;-5.93;81.80
78223;BME280;67497;53.058;21.618;2024-01-06T00:30:03;100018.47;;;-5.75;81.67
78223;BME280;67497;53.058;21.618;2024-01-06T00:32:04;100007.91;;;-5.78;83.35
78223;BME280;67497;53.058;21.618;2024-01-06T00:34:04;100010.13;;;-5.66;84.02
78223;BME280;67497;53.058;21.618;2024-01-06T00:36:07;99998.81;;;-5.72;82.42
78223;BME280;67497;53.058;21.618;2024-01-06T00:38:07;99998.88;;;-5.74;82.82
78223;BME280;67497;53.058;21.618;2024-01-06T00:40:08;100022.50;;;-5.65;81.71
78223;BME280;67497;53.058;21.618;2024-01-06T00:42:08;99990.13;;;-5.77;80.99
78223;BME280;67497;53.058;21.618;2024-01-06T00:44:09;99990.25;;;-5.80;82.34
78223;BME280;67497;53.058;21.618;2024-01-06T00:46:09;100024.38;;;-5.67;82.30
78223;BME280;67497;53.058;21.618;2024-01-06T00:48:10;99999.69;;;-5.72;81.98
78223;BME280;67497;53.058;21.618;2024-01-06T00:50:10;99994.34;;;-5.72;84.07
78223;BME280;67497;53.058;21.618;2024-01-06T00:52:11;100015.94;;;-5.56;83.18
78223;BME280;67497;53.058;21.618;2024-01-06T00:54:11;100028.13;;;-5.49;83.19
78223;BME280;67497;53.058;21.618;2024-01-06T00:56:12;100028.19;;;-5.51;83.39
78223;BME280;67497;53.058;21.618;2024-01-06T00:58:12;100011.59;;;-5.59;81.78
78223;BME280;67497;53.058;21.618;2024-01-06T01:00:13;100020.28;;;-5.54;82.00
78223;BME280;67497;53.058;21.618;2024-01-06T01:02:14;100036.81;;;-5.44;82.31
78223;BME280;67497;53.058;21.618;2024-01-06T01:04:14;100029.84;;;-5.48;83.75
78223;BME280;67497;53.058;21.618;2024-01-06T01:06:15;100032.72;;;-5.53;82.70
78223;BME280;67497;53.058;21.618;2024-01-06T01:08:15;100035.94;;;-5.45;82.40
78223;BME280;67497;53.058;21.618;2024-01-06T01:10:15;100042.88;;;-5.40;82.27
78223;BME280;67497;53.058;21.618;2024-01-06T01:12:16;100034.19;;;-5.46;81.83
78223;BME280;67497;53.058;21.618;2024-01-06T01:14:16;100053.44;;;-5.37;81.11
78223;BME280;67497;53.058;21.618;2024-01-06T01:16:18;100035.16;;;-5.47;82.55
78223;BME280;67497;53.058;21.618;2024-01-06T01:18:19;100060.22;;;-5.29;83.13
78223;BME280;67497;53.058;21.618;2024-01-06T01:20:19;100047.06;;;-5.33;80.90
78223;BME280;67497;53.058;21.618;2024-01-06T01:22:20;100043.84;;;-5.41;81.71
78223;BME280;67497;53.058;21.618;2024-01-06T01:24:20;100039.25;;;-5.38;82.00
78223;BME280;67497;53.058;21.618;2024-01-06T01:26:20;100040.78;;;-5.32;81.00
78223;BME280;67497;53.058;21.618;2024-01-06T01:28:21;100035.44;;;-5.32;82.18
78223;BME280;67497;53.058;21.618;2024-01-06T01:30:21;100034.09;;;-5.21;81.81
78223;BME280;67497;53.058;21.618;2024-01-06T01:32:21;100035.84;;;-5.20;81.80
78223;BME280;67497;53.058;21.618;2024-01-06T01:34:22;100035.44;;;-5.32;82.94
78223;BME280;67497;53.058;21.618;2024-01-06T01:36:22;100041.66;;;-5.32;83.24
78223;BME280;67497;53.058;21.618;2024-01-06T01:38:23;100043.34;;;-5.29;82.10
78223;BME280;67497;53.058;21.618;2024-01-06T01:40:23;100033.59;;;-5.30;82.01
78223;BME280;67497;53.058;21.618;2024-01-06T01:42:24;100041.94;;;-5.38;82.08
78223;BME280;67497;53.058;21.618;2024-01-06T01:44:24;100042.41;;;-5.28;81.97
78223;BME280;67497;53.058;21.618;2024-01-06T01:46:28;100036.94;;;-5.25;83.32
78223;BME280;67497;53.058;21.618;2024-01-06T01:48:29;100015.84;;;-5.31;82.11
78223;BME280;67497;53.058;21.618;2024-01-06T01:50:31;100032.94;;;-5.14;82.88
78223;BME280;67497;53.058;21.618;2024-01-06T01:52:31;100037.81;;;-5.03;82.54
78223;BME280;67497;53.058;21.618;2024-01-06T01:54:32;100037.81;;;-5.03;81.03
78223;BME280;67497;53.058;21.618;2024-01-06T01:56:33;100033.47;;;-5.06;82.40
78223;BME280;67497;53.058;21.618;2024-01-06T01:58:34;100048.50;;;-5.03;83.62
78223;BME280;67497;53.058;21.618;2024-01-06T02:00:35;100038.88;;;-5.07;83.31
78223;BME280;67497;53.058;21.618;2024-01-06T02:02:35;100030.66;;;-5.03;82.06
78223;BME280;67497;53.058;21.618;2024-01-06T02:04:35;100018.47;;;-5.08;80.85
78223;BME280;67497;53.058;21.618;2024-01-06T02:06:36;100009.63;;;-5.10;81.75
78223;BME280;67497;53.058;21.618;2024-01-06T02:08:37;100008.69;;;-5.09;82.31
78223;BME280;67497;53.058;21.618;2024-01-06T02:10:37;100003.34;;;-5.09;83.16
78223;BME280;67497;53.058;21.618;2024-01-06T02:12:38;100017.81;;;-4.93;82.61
78223;BME280;67497;53.058;21.618;2024-01-06T02:14:38;100015.72;;;-5.07;83.57
78223;BME280;67497;53.058;21.618;2024-01-06T02:16:38;100010.44;;;-5.08;83.21
78223;BME280;67497;53.058;21.618;2024-01-06T02:18:39;100011.59;;;-5.15;82.86
78223;BME280;67497;53.058;21.618;2024-01-06T02:20:42;100008.03;;;-5.14;83.43
78223;BME280;67497;53.058;21.618;2024-01-06T02:22:43;100018.47;;;-5.08;83.63
78223;BME280;67497;53.058;21.618;2024-01-06T02:24:43;100007.69;;;-5.07;83.10
78223;BME280;67497;53.058;21.618;2024-01-06T02:26:44;100025.38;;;-5.04;83.16
78223;BME280;67497;53.058;21.618;2024-01-06T02:28:44;100019.06;;;-5.02;83.42
78223;BME280;67497;53.058;21.618;2024-01-06T02:30:48;100019.00;;;-5.00;84.65
78223;BME280;67497;53.058;21.618;2024-01-06T02:32:49;100017.19;;;-5.00;82.40
78223;BME280;67497;53.058;21.618;2024-01-06T02:34:49;100023.81;;;-4.88;83.06
78223;BME280;67497;53.058;21.618;2024-01-06T02:36:49;100009.47;;;-4.86;82.42
78223;BME280;67497;53.058;21.618;2024-01-06T02:38:50;100020.47;;;-4.93;81.86
78223;BME280;67497;53.058;21.618;2024-01-06T02:40:50;100034.56;;;-4.90;81.77
78223;BME280;67497;53.058;21.618;2024-01-06T02:42:50;100031.06;;;-4.92;82.10
78223;BME280;67497;53.058;21.618;2024-01-06T02:44:51;100020.47;;;-4.93;81.91
78223;BME280;67497;53.058;21.618;2024-01-06T02:46:51;100013.22;;;-4.90;81.92
78223;BME280;67497;53.058;21.618;2024-01-06T02:48:52;100013.34;;;-4.93;82.39
78223;BME280;67497;53.058;21.618;2024-01-06T02:50:52;100015.00;;;-4.90;82.78
78223;BME280;67497;53.058;21.618;2024-01-06T02:52:53;100027.94;;;-4.81;82.19
78223;BME280;67497;53.058;21.618;2024-01-06T02:54:53;100023.03;;;-4.90;81.88
78223;BME280;67497;53.058;21.618;2024-01-06T02:56:53;100024.28;;;-4.99;84.18
78223;BME280;67497;53.058;21.618;2024-01-06T02:58:54;100025.38;;;-5.04;84.45
78223;BME280;67497;53.058;21.618;2024-01-06T03:00:54;100008.63;;;-5.08;83.50
78223;BME280;67497;53.058;21.618;2024-01-06T03:02:54;100024.16;;;-4.96;83.41
78223;BME280;67497;53.058;21.618;2024-01-06T03:04:55;100016.94;;;-4.94;83.69
78223;BME280;67497;53.058;21.618;2024-01-06T03:06:56;100019.41;;;-4.89;83.24
78223;BME280;67497;53.058;21.618;2024-01-06T03:08:56;100007.91;;;-4.91;82.38
78223;BME280;67497;53.058;21.618;2024-01-06T03:10:57;100014.94;;;-4.89;82.64
78223;BME280;67497;53.058;21.618;2024-01-06T03:12:58;99998.31;;;-4.95;81.79
78223;BME280;67497;53.058;21.618;2024-01-06T03:14:58;100001.91;;;-4.96;82.53
78223;BME280;67497;53.058;21.618;2024-01-06T03:16:58;100009.00;;;-4.95;82.97
78223;BME280;67497;53.058;21.618;2024-01-06T03:18:59;100010.00;;;-4.98;83.02
78223;BME280;67497;53.058;21.618;2024-01-06T03:20:59;100015.06;;;-4.92;82.59
78223;BME280;67497;53.058;21.618;2024-01-06T03:22:59;100007.31;;;-4.77;82.83
78223;BME280;67497;53.058;21.618;2024-01-06T03:25:00;100018.63;;;-4.71;81.15
78223;BME280;67497;53.058;21.618;2024-01-06T03:27:00;100008.19;;;-4.77;82.00
78223;BME280;67497;53.058;21.618;2024-01-06T03:29:00;100020.31;;;-4.68;82.28
78223;BME280;67497;53.058;21.618;2024-01-06T03:31:02;100014.75;;;-4.64;81.46
78223;BME280;67497;53.058;21.618;2024-01-06T03:33:03;100007.53;;;-4.62;81.41
78223;BME280;67497;53.058;21.618;2024-01-06T03:35:05;100016.63;;;-4.66;80.93
78223;BME280;67497;53.058;21.618;2024-01-06T03:37:06;100005.41;;;-4.74;81.54
78223;BME280;67497;53.058;21.618;2024-01-06T03:39:07;100010.09;;;-4.79;81.73
78223;BME280;67497;53.058;21.618;2024-01-06T03:41:07;100017.25;;;-4.81;82.19
78223;BME280;67497;53.058;21.618;2024-01-06T03:43:08;100016.72;;;-4.89;81.83
78223;BME280;67497;53.058;21.618;2024-01-06T03:45:08;100019.56;;;-4.92;81.73
78223;BME280;67497;53.058;21.618;2024-01-06T03:47:09;100018.72;;;-4.94;82.44
78223;BME280;67497;53.058;21.618;2024-01-06T03:49:09;100020.28;;;-4.89;82.21
78223;BME280;67497;53.058;21.618;2024-01-06T03:51:10;100020.63;;;-4.76;81.00
78223;BME280;67497;53.058;21.618;2024-01-06T03:53:10;100022.47;;;-4.78;81.20
78223;BME280;67497;53.058;21.618;2024-01-06T03:55:11;100032.91;;;-4.72;81.18
78223;BME280;67497;53.058;21.618;2024-01-06T03:57:11;100033.03;;;-4.75;81.92
78223;BME280;67497;53.058;21.618;2024-01-06T03:59:11;100025.97;;;-4.76;81.95
78223;BME280;67497;53.058;21.618;2024-01-06T04:01:12;100021.56;;;-4.77;81.74
78223;BME280;67497;53.058;21.618;2024-01-06T04:03:12;100031.31;;;-4.76;80.79
78223;BME280;67497;53.058;21.618;2024-01-06T04:05:13;100029.16;;;-4.88;80.61
78223;BME280;67497;53.058;21.618;2024-01-06T04:07:13;100022.59;;;-5.01;80.80
78223;BME280;67497;53.058;21.618;2024-01-06T04:09:13;100030.72;;;-5.04;80.78
78223;BME280;67497;53.058;21.618;2024-01-06T04:11:14;100035.31;;;-5.08;80.46
78223;BME280;67497;53.058;21.618;2024-01-06T04:13:15;100048.50;;;-5.03;80.71
78223;BME280;67497;53.058;21.618;2024-01-06T04:15:15;100043.16;;;-5.03;81.39
78223;BME280;67497;53.058;21.618;2024-01-06T04:17:16;100046.50;;;-4.98;82.40
78223;BME280;67497;53.058;21.618;2024-01-06T04:19:16;100046.25;;;-4.92;82.17
78223;BME280;67497;53.058;21.618;2024-01-06T04:21:17;100050.19;;;-4.80;81.22
78223;BME280;67497;53.058;21.618;2024-01-06T04:23:17;100052.63;;;-4.74;81.84
78223;BME280;67497;53.058;21.618;2024-01-06T04:25:17;100051.06;;;-4.80;80.61
78223;BME280;67497;53.058;21.618;2024-01-06T04:27:18;100049.19;;;-4.78;79.93
78223;BME280;67497;53.058;21.618;2024-01-06T04:29:18;100036.84;;;-4.80;79.67
78223;BME280;67497;53.058;21.618;2024-01-06T04:31:18;100035.97;;;-4.81;79.97
78223;BME280;67497;53.058;21.618;2024-01-06T04:33:19;100042.25;;;-4.82;80.88
78223;BME280;67497;53.058;21.618;2024-01-06T04:35:20;100035.41;;;-4.89;80.26
78223;BME280;67497;53.058;21.618;2024-01-06T04:37:20;100037.28;;;-4.91;81.27
78223;BME280;67497;53.058;21.618;2024-01-06T04:39:20;100027.63;;;-4.94;81.37
78223;BME280;67497;53.058;21.618;2024-01-06T04:41:21;100037.28;;;-4.91;81.15
78223;BME280;67497;53.058;21.618;2024-01-06T04:43:21;100047.47;;;-4.79;80.44
78223;BME280;67497;53.058;21.618;2024-01-06T04:45:22;100037.78;;;-4.81;79.84
78223;BME280;67497;53.058;21.618;2024-01-06T04:47:24;100029.34;;;-4.93;80.76
78223;BME280;67497;53.058;21.618;2024-01-06T04:49:25;100029.16;;;-4.88;80.97
78223;BME280;67497;53.058;21.618;2024-01-06T04:51:25;100042.31;;;-4.84;80.72
78223;BME280;67497;53.058;21.618;2024-01-06T04:53:26;100039.59;;;-4.82;80.91
78223;BME280;67497;53.058;21.618;2024-01-06T04:55:26;100040.25;;;-4.77;81.69
78223;BME280;67497;53.058;21.618;2024-01-06T04:57:26;100045.06;;;-4.65;81.43
78223;BME280;67497;53.058;21.618;2024-01-06T04:59:27;100046.94;;;-4.67;80.40
78223;BME280;67497;53.058;21.618;2024-01-06T05:01:27;100052.81;;;-4.79;80.50
78223;BME280;67497;53.058;21.618;2024-01-06T05:03:27;100039.97;;;-4.91;80.46
78223;BME280;67497;53.058;21.618;2024-01-06T05:05:28;100041.63;;;-4.89;80.32
78223;BME280;67497;53.058;21.618;2024-01-06T05:07:28;100041.16;;;-4.98;80.22
78223;BME280;67497;53.058;21.618;2024-01-06T05:09:28;100035.63;;;-4.94;80.56
78223;BME280;67497;53.058;21.618;2024-01-06T05:11:29;100041.16;;;-4.98;81.26
78223;BME280;67497;53.058;21.618;2024-01-06T05:13:29;100049.84;;;-4.93;80.99
78223;BME280;67497;53.058;21.618;2024-01-06T05:15:29;100047.50;;;-5.01;80.80
78223;BME280;67497;53.058;21.618;2024-01-06T05:17:30;100051.84;;;-4.98;80.68
78223;BME280;67497;53.058;21.618;2024-01-06T05:19:31;100040.38;;;-5.00;80.44
78223;BME280;67497;53.058;21.618;2024-01-06T05:21:32;100050.84;;;-4.96;80.81
78223;BME280;67497;53.058;21.618;2024-01-06T05:23:32;100062.09;;;-4.88;80.18
78223;BME280;67497;53.058;21.618;2024-01-06T05:25:32;100066.31;;;-4.82;80.65
78223;BME280;67497;53.058;21.618;2024-01-06T05:27:33;100059.41;;;-4.88;81.33
78223;BME280;67497;53.058;21.618;2024-01-06T05:29:33;100042.88;;;-4.97;80.53
78223;BME280;67497;53.058;21.618;2024-01-06T05:31:33;100062.28;;;-4.92;80.95
78223;BME280;67497;53.058;21.618;2024-01-06T05:33:34;100070.97;;;-4.87;80.51
78223;BME280;67497;53.058;21.618;2024-01-06T05:35:34;100076.03;;;-4.81;79.76
78223;BME280;67497;53.058;21.618;2024-01-06T05:37:35;100065.63;;;-4.87;80.86
78223;BME280;67497;53.058;21.618;2024-01-06T05:39:37;100070.69;;;-4.81;79.76
78223;BME280;67497;53.058;21.618;2024-01-06T05:41:39;100079.72;;;-4.84;79.63
78223;BME280;67497;53.058;21.618;2024-01-06T05:43:40;100084.22;;;-4.84;79.47
78223;BME280;67497;53.058;21.618;2024-01-06T05:45:40;100095.38;;;-4.96;80.08
78223;BME280;67497;53.058;21.618;2024-01-06T05:47:43;100078.44;;;-4.95;80.74
78223;BME280;67497;53.058;21.618;2024-01-06T05:49:43;100080.91;;;-4.91;79.69
78223;BME280;67497;53.058;21.618;2024-01-06T05:51:46;100078.34;;;-4.94;80.03
78223;BME280;67497;53.058;21.618;2024-01-06T05:53:47;100093.06;;;-4.84;82.00
78223;BME280;67497;53.058;21.618;2024-01-06T05:55:47;100098.16;;;-4.77;81.95
78223;BME280;67497;53.058;21.618;2024-01-06T05:57:47;100089.09;;;-4.73;81.01
78223;BME280;67497;53.058;21.618;2024-01-06T05:59:48;100095.44;;;-4.76;79.99
78223;BME280;67497;53.058;21.618;2024-01-06T06:01:49;100094.94;;;-4.86;80.22
78223;BME280;67497;53.058;21.618;2024-01-06T06:03:50;100097.59;;;-4.86;81.09
78223;BME280;67497;53.058;21.618;2024-01-06T06:05:50;100093.94;;;-4.83;80.64
78223;BME280;67497;53.058;21.618;2024-01-06T06:07:51;100107.38;;;-4.85;79.86
78223;BME280;67497;53.058;21.618;2024-01-06T06:09:51;100097.06;;;-4.94;79.88
78223;BME280;67497;53.058;21.618;2024-01-06T06:11:53;100112.47;;;-5.00;79.41
78223;BME280;67497;53.058;21.618;2024-01-06T06:13:53;100112.19;;;-4.94;80.14
78223;BME280;67497;53.058;21.618;2024-01-06T06:15:54;100111.53;;;-4.99;80.04
78223;BME280;67497;53.058;21.618;2024-01-06T06:17:55;100107.13;;;-5.00;80.52
78223;BME280;67497;53.058;21.618;2024-01-06T06:19:56;100107.72;;;-4.94;80.96
78223;BME280;67497;53.058;21.618;2024-01-06T06:21:57;100106.63;;;-4.88;81.03
78223;BME280;67497;53.058;21.618;2024-01-06T06:23:57;100120.66;;;-4.83;80.33
78223;BME280;67497;53.058;21.618;2024-01-06T06:25:58;100100.28;;;-4.86;80.42
78223;BME280;67497;53.058;21.618;2024-01-06T06:27:59;100098.41;;;-4.84;80.14
78223;BME280;67497;53.058;21.618;2024-01-06T06:29:59;100108.84;;;-4.77;79.69
78223;BME280;67497;53.058;21.618;2024-01-06T06:32:00;100110.97;;;-4.86;78.44
78223;BME280;67497;53.058;21.618;2024-01-06T06:34:00;100105.19;;;-4.75;79.85
78223;BME280;67497;53.058;21.618;2024-01-06T06:36:01;100118.28;;;-4.69;79.21
78223;BME280;67497;53.058;21.618;2024-01-06T06:38:01;100120.66;;;-4.83;79.06
78223;BME280;67497;53.058;21.618;2024-01-06T06:40:02;100123.31;;;-4.83;80.20
78223;BME280;67497;53.058;21.618;2024-01-06T06:42:03;100105.97;;;-4.73;79.98
78223;BME280;67497;53.058;21.618;2024-01-06T06:44:04;100108.94;;;-4.79;78.10
78223;BME280;67497;53.058;21.618;2024-01-06T06:46:04;100111.47;;;-4.76;79.66
78223;BME280;67497;53.058;21.618;2024-01-06T06:48:05;100119.41;;;-4.74;78.88
78223;BME280;67497;53.058;21.618;2024-01-06T06:50:07;100117.50;;;-4.71;78.48
78223;BME280;67497;53.058;21.618;2024-01-06T06:52:07;100124.13;;;-4.81;79.29
78223;BME280;67497;53.058;21.618;2024-01-06T06:54:07;100118.84;;;-4.82;79.30
78223;BME280;67497;53.058;21.618;2024-01-06T06:56:08;100127.63;;;-4.79;78.42
78223;BME280;67497;53.058;21.618;2024-01-06T06:58:08;100130.66;;;-4.88;79.29
78223;BME280;67497;53.058;21.618;2024-01-06T07:00:09;100135.19;;;-4.90;78.41
78223;BME280;67497;53.058;21.618;2024-01-06T07:02:09;100130.78;;;-4.91;79.43
78223;BME280;67497;53.058;21.618;2024-01-06T07:04:09;100138.00;;;-4.93;79.19
78223;BME280;67497;53.058;21.618;2024-01-06T07:06:13;100141.56;;;-4.94;78.72
78223;BME280;67497;53.058;21.618;2024-01-06T07:08:14;100143.53;;;-4.98;78.68
78223;BME280;67497;53.058;21.618;2024-01-06T07:10:15;100144.44;;;-4.99;78.61
78223;BME280;67497;53.058;21.618;2024-01-06T07:12:15;100139.19;;;-5.00;79.64
78223;BME280;67497;53.058;21.618;2024-01-06T07:14:16;100142.00;;;-5.05;79.15
78223;BME280;67497;53.058;21.618;2024-01-06T07:16:17;100140.28;;;-5.06;79.04
78223;BME280;67497;53.058;21.618;2024-01-06T07:18:17;100142.78;;;-5.01;79.15
78223;BME280;67497;53.058;21.618;2024-01-06T07:20:19;100140.91;;;-4.99;79.33
78223;BME280;67497;53.058;21.618;2024-01-06T07:22:20;100128.72;;;-5.06;79.67
78223;BME280;67497;53.058;21.618;2024-01-06T07:24:20;100131.84;;;-4.95;79.63
78223;BME280;67497;53.058;21.618;2024-01-06T07:26:21;100143.69;;;-4.80;79.54
78223;BME280;67497;53.058;21.618;2024-01-06T07:28:21;100125.69;;;-4.97;79.14
78223;BME280;67497;53.058;21.618;2024-01-06T07:30:21;100137.22;;;-4.97;77.90
78223;BME280;67497;53.058;21.618;2024-01-06T07:32:22;100138.41;;;-5.04;79.04
78223;BME280;67497;53.058;21.618;2024-01-06T07:34:23;100141.28;;;-5.08;78.27
78223;BME280;67497;53.058;21.618;2024-01-06T07:36:24;100139.31;;;-5.26;77.65
78223;BME280;67497;53.058;21.618;2024-01-06T07:38:24;100142.56;;;-5.18;78.30
78223;BME280;67497;53.058;21.618;2024-01-06T07:40:24;100148.22;;;-5.04;78.55
78223;BME280;67497;53.058;21.618;2024-01-06T07:42:25;100146.75;;;-5.11;77.91
78223;BME280;67497;53.058;21.618;2024-01-06T07:44:26;100160.00;;;-5.10;77.93
78223;BME280;67497;53.058;21.618;2024-01-06T07:46:26;100146.16;;;-5.19;77.88
78223;BME280;67497;53.058;21.618;2024-01-06T07:48:26;100152.47;;;-4.99;77.27
78223;BME280;67497;53.058;21.618;2024-01-06T07:50:27;100156.44;;;-4.87;77.12
78223;BME280;67497;53.058;21.618;2024-01-06T07:52:28;100168.72;;;-4.83;77.27
78223;BME280;67497;53.058;21.618;2024-01-06T07:54:28;100164.63;;;-4.70;76.51
78223;BME280;67497;53.058;21.618;2024-01-06T07:56:28;100161.59;;;-4.61;76.49
78223;BME280;67497;53.058;21.618;2024-01-06T07:58:29;100178.56;;;-4.62;75.80
78223;BME280;67497;53.058;21.618;2024-01-06T08:00:29;100183.28;;;-4.68;76.32
78223;BME280;67497;53.058;21.618;2024-01-06T08:02:30;100184.00;;;-4.65;76.95
78223;BME280;67497;53.058;21.618;2024-01-06T08:04:30;100187.00;;;-4.72;75.17
78223;BME280;67497;53.058;21.618;2024-01-06T08:06:31;100186.50;;;-4.82;75.04
78223;BME280;67497;53.058;21.618;2024-01-06T08:08:31;100171.91;;;-4.95;75.61
78223;BME280;67497;53.058;21.618;2024-01-06T08:10:31;100176.59;;;-4.78;76.61
78223;BME280;67497;53.058;21.618;2024-01-06T08:12:32;100195.91;;;-4.72;75.17
78223;BME280;67497;53.058;21.618;2024-01-06T08:14:32;100201.03;;;-4.89;75.00
78223;BME280;67497;53.058;21.618;2024-01-06T08:16:33;100200.41;;;-4.96;75.33
78223;BME280;67497;53.058;21.618;2024-01-06T08:18:33;100214.53;;;-4.92;74.64
78223;BME280;67497;53.058;21.618;2024-01-06T08:20:34;100220.13;;;-5.00;74.22
78223;BME280;67497;53.058;21.618;2024-01-06T08:22:34;100216.16;;;-5.11;74.66
78223;BME280;67497;53.058;21.618;2024-01-06T08:24:34;100228.81;;;-5.16;74.08
78223;BME280;67497;53.058;21.618;2024-01-06T08:26:35;100215.63;;;-5.21;75.47
78223;BME280;67497;53.058;21.618;2024-01-06T08:28:35;100210.00;;;-5.36;75.72
78223;BME280;67497;53.058;21.618;2024-01-06T08:30:36;100222.44;;;-5.35;76.12
78223;BME280;67497;53.058;21.618;2024-01-06T08:32:36;100213.06;;;-5.47;75.85
78223;BME280;67497;53.058;21.618;2024-01-06T08:34:36;100214.06;;;-5.50;74.98
78223;BME280;67497;53.058;21.618;2024-01-06T08:36:37;100211.09;;;-5.42;75.86
78223;BME280;67497;53.058;21.618;2024-01-06T08:38:37;100227.81;;;-5.37;76.19
78223;BME280;67497;53.058;21.618;2024-01-06T08:40:38;100232.56;;;-5.45;74.96
78223;BME280;67497;53.058;21.618;2024-01-06T08:42:38;100225.34;;;-5.43;75.91
78223;BME280;67497;53.058;21.618;2024-01-06T08:44:38;100239.66;;;-5.44;75.64
78223;BME280;67497;53.058;21.618;2024-01-06T08:46:39;100235.19;;;-5.43;75.35
78223;BME280;67497;53.058;21.618;2024-01-06T08:48:39;100220.16;;;-5.46;75.26
78223;BME280;67497;53.058;21.618;2024-01-06T08:50:40;100245.16;;;-5.02;75.42
78223;BME280;67497;53.058;21.618;2024-01-06T08:52:40;100235.44;;;-5.03;73.83
78223;BME280;67497;53.058;21.618;2024-01-06T08:54:40;100250.84;;;-4.88;73.87
78223;BME280;67497;53.058;21.618;2024-01-06T08:56:41;100244.59;;;-4.87;72.79
78223;BME280;67497;53.058;21.618;2024-01-06T08:58:41;100258.41;;;-4.99;72.70
78223;BME280;67497;53.058;21.618;2024-01-06T09:00:42;100260.75;;;-4.90;72.80
78223;BME280;67497;53.058;21.618;2024-01-06T09:02:42;100263.75;;;-4.99;72.96
78223;BME280;67497;53.058;21.618;2024-01-06T09:04:42;100239.72;;;-5.22;73.30
78223;BME280;67497;53.058;21.618;2024-01-06T09:06:43;100270.38;;;-5.09;74.59
78223;BME280;67497;53.058;21.618;2024-01-06T09:08:43;100253.53;;;-5.11;73.51
78223;BME280;67497;53.058;21.618;2024-01-06T09:10:43;100262.06;;;-4.78;73.69
78223;BME280;67497;53.058;21.618;2024-01-06T09:12:44;100267.88;;;-4.91;73.36
78223;BME280;67497;53.058;21.618;2024-01-06T09:14:44;100272.16;;;-4.63;72.43
78223;BME280;67497;53.058;21.618;2024-01-06T09:16:45;100254.69;;;-4.72;72.05
78223;BME280;67497;53.058;21.618;2024-01-06T09:18:45;100273.56;;;-4.76;71.81
78223;BME280;67497;53.058;21.618;2024-01-06T09:20:45;100280.13;;;-4.85;72.45
78223;BME280;67497;53.058;21.618;2024-01-06T09:22:49;100269.78;;;-4.71;71.47
78223;BME280;67497;53.058;21.618;2024-01-06T09:24:49;100265.84;;;-4.84;72.53
78223;BME280;67497;53.058;21.618;2024-01-06T09:26:49;100270.03;;;-4.77;72.30
78223;BME280;67497;53.058;21.618;2024-01-06T09:28:51;100261.81;;;-4.72;72.63
78223;BME280;67497;53.058;21.618;2024-01-06T09:30:51;100259.69;;;-4.86;71.89
78223;BME280;67497;53.058;21.618;2024-01-06T09:32:54;100266.25;;;-4.71;71.84
78223;BME280;67497;53.058;21.618;2024-01-06T09:34:55;100278.59;;;-4.69;72.00
78223;BME280;67497;53.058;21.618;2024-01-06T09:36:55;100274.63;;;-4.59;71.25
78223;BME280;67497;53.058;21.618;2024-01-06T09:38:55;100272.28;;;-4.66;71.79
78223;BME280;67497;53.058;21.618;2024-01-06T09:40:56;100267.69;;;-4.63;70.93
78223;BME280;67497;53.058;21.618;2024-01-06T09:42:58;100266.84;;;-4.65;71.09
78223;BME280;67497;53.058;21.618;2024-01-06T09:44:58;100271.16;;;-4.61;70.57
78223;BME280;67497;53.058;21.618;2024-01-06T09:46:59;100260.34;;;-4.58;71.19
78223;BME280;67497;53.058;21.618;2024-01-06T09:49:01;100265.69;;;-4.58;71.75
78223;BME280;67497;53.058;21.618;2024-01-06T09:51:02;100271.59;;;-4.71;70.72
78223;BME280;67497;53.058;21.618;2024-01-06T09:53:04;100275.41;;;-4.55;72.16
78223;BME280;67497;53.058;21.618;2024-01-06T09:55:12;100265.72;;;-4.36;71.66
78223;BME280;67497;53.058;21.618;2024-01-06T09:57:12;100272.78;;;-4.13;71.15
78223;BME280;67497;53.058;21.618;2024-01-06T09:59:12;100279.66;;;-4.06;70.92
78223;BME280;67497;53.058;21.618;2024-01-06T10:01:14;100281.41;;;-3.85;70.03
78223;BME280;67497;53.058;21.618;2024-01-06T10:03:15;100273.28;;;-3.82;68.85
78223;BME280;67497;53.058;21.618;2024-01-06T10:05:16;100289.44;;;-3.85;68.92
78223;BME280;67497;53.058;21.618;2024-01-06T10:07:17;100274.59;;;-3.72;68.57
78223;BME280;67497;53.058;21.618;2024-01-06T10:09:17;100279.66;;;-3.44;67.85
78223;BME280;67497;53.058;21.618;2024-01-06T10:11:18;100284.66;;;-3.17;67.38
78223;BME280;67497;53.058;21.618;2024-01-06T10:13:21;100273.00;;;-2.77;66.33
78223;BME280;67497;53.058;21.618;2024-01-06T10:15:21;100285.28;;;-2.73;64.77
78223;BME280;67497;53.058;21.618;2024-01-06T10:17:22;100279.00;;;-2.53;65.56
78223;BME280;67497;53.058;21.618;2024-01-06T10:19:23;100278.38;;;-2.58;64.35
78223;BME280;67497;53.058;21.618;2024-01-06T10:21:25;100280.81;;;-2.35;63.83
78223;BME280;67497;53.058;21.618;2024-01-06T10:23:28;100285.09;;;-2.31;63.90